KSEAKTTD

Guest
Details From KSEA - Seattle Tacoma Intl
To KTTD - Portland Troutdale
Flight Number -
Tags Generated
Created
Modified
Stats Distance 115 nm / 213 km
Max Altitude 0 ft / 0 m
Waypoints 2
Social Downloads 0
Likes 0
Share VATSIM

Download

Looking for another format? Having issues loading an existing format? Contact us
Advertisement - Login to hide

Notes

Generated

Route

KSEA KTTD

ID Type Via Altitude Latitude Longitude Leg Dist Tot Dist Heading (true) Name
O KSEA APT - 0 ft / 0 m 47.46383˚ -122.31786˚ - 0 nm - -
O KTTD APT - 0 ft / 0 m 45.54919˚ -122.41179˚ 115 nm 115 nm 182° / 182° -

Altitude Profile

Advertisement - Login to hide

KSEA

Details ICAO KSEA (SEA)
Name Seattle Tacoma Intl
Region United States
Timezone America/Los_Angeles (UTC-8.0)
Stats Elevation 433 ft / 132 m (AMSL)
Location 47.450188° -122.312320°
Runways 3
Magnetic Variation 15.684° E

METAR

KSEA 150753Z 14005KT 10SM BKN250 04/02 A3023 RMK AO2 SLP247 T00390017 401000022 $

Decode

TAF

TAF KSEA 150520Z 1506/1612 16005KT P6SM OVC150 TEMPO 1506/1510 4SM BR FM151300 18006KT P6SM SCT025 OVC040 FM151600 18006KT P6SM -RA BKN020 OVC035 FM151800 19006KT P6SM -SHRA OVC015

Decode

Departure Runways

ID Width Length Bearing (true) Bearing (mag) Surface Threshold Offset Overrun Length
16C 151 ft / 46 m 9,429 ft / 2,874 m 180.34° 164.66° Concrete 0 ft / 0 m 223 ft / 68 m
16L 151 ft / 46 m 11,904 ft / 3,628 m 180.34° 164.66° Concrete 0 ft / 0 m 151 ft / 46 m
16R 151 ft / 46 m 8,503 ft / 2,592 m 180.34° 164.66° Concrete 0 ft / 0 m 164 ft / 50 m
34C 151 ft / 46 m 9,429 ft / 2,874 m 0.34° 344.66° Concrete 0 ft / 0 m 394 ft / 120 m
34L 151 ft / 46 m 8,503 ft / 2,592 m 0.34° 344.66° Concrete 0 ft / 0 m 394 ft / 120 m
34R 151 ft / 46 m 11,904 ft / 3,628 m 0.34° 344.66° Concrete 0 ft / 0 m 400 ft / 122 m

KTTD

Details ICAO KTTD (TTD)
Name Portland Troutdale
Region United States
Timezone America/Los_Angeles (UTC-8.0)
Stats Elevation 39 ft / 12 m (AMSL)
Location 45.549366° -122.401252°
Runways 1
Magnetic Variation 15.250° E

METAR

KTTD 150753Z AUTO 07011KT 10SM CLR 03/M03 A3030 RMK AO2 SLP259 T00281033 400560028

Decode

TAF

TAF KTTD 150547Z 1506/1606 09015G25KT P6SM BKN200 FM151700 09010KT P6SM -RA SCT025 OVC050 FM152200 29006KT P6SM -SHRA BKN025 FM160200 28005KT P6SM VCSH SCT025 BKN035

Decode

Destination Runways

ID Width Length Bearing (true) Bearing (mag) Surface Threshold Offset Overrun Length
07 150 ft / 46 m 5,385 ft / 1,641 m 88.65° 73.40° Asphalt 0 ft / 0 m 0 ft / 0 m
25 150 ft / 46 m 5,385 ft / 1,641 m 268.67° 253.42° Asphalt 0 ft / 0 m 390 ft / 119 m

Popular Alternatives